createdAt,value
2016-11-23T00:00:47.447Z,18.78
2016-11-23T00:02:01.026Z,18.7
2016-11-23T00:03:14.055Z,18.67
2016-11-23T00:04:26.929Z,18.75
2016-11-23T00:05:40.853Z,18.75
2016-11-23T00:06:53.867Z,18.76
2016-11-23T00:08:07.365Z,18.75
2016-11-23T00:09:19.887Z,18.74
2016-11-23T00:10:32.352Z,18.78
2016-11-23T00:11:45.939Z,18.78
2016-11-23T00:12:58.923Z,18.64
2016-11-23T00:14:11.887Z,18.68
2016-11-23T00:15:25.405Z,18.74
2016-11-23T00:16:37.982Z,18.64
2016-11-23T00:17:50.429Z,18.64
2016-11-23T00:19:03.443Z,18.71
2016-11-23T00:20:15.921Z,18.7
2016-11-23T00:21:29.528Z,18.71
2016-11-23T00:22:42.083Z,18.68
2016-11-23T00:23:55.687Z,18.64
2016-11-23T00:25:08.203Z,18.63
2016-11-23T00:26:21.879Z,18.63
2016-11-23T00:27:34.375Z,18.61
2016-11-23T00:28:47.432Z,18.61
2016-11-23T00:30:00.458Z,18.6
2016-11-23T00:31:12.395Z,18.49
2016-11-23T00:32:24.906Z,18.46
2016-11-23T00:33:37.931Z,18.46
2016-11-23T00:34:50.501Z,18.63
2016-11-23T00:36:02.991Z,18.63
2016-11-23T00:37:15.961Z,18.61
2016-11-23T00:38:28.493Z,18.66
2016-11-23T00:39:41.523Z,18.64
2016-11-23T00:40:55.119Z,18.78
2016-11-23T00:42:08.122Z,18.78
2016-11-23T00:43:20.557Z,18.75
2016-11-23T00:44:33.009Z,18.76
2016-11-23T00:45:44.922Z,18.71
2016-11-23T00:46:57.985Z,18.75
2016-11-23T00:48:10.944Z,18.68
2016-11-23T00:49:23.450Z,18.66
2016-11-23T00:50:36.461Z,18.66
2016-11-23T00:51:48.398Z,18.79
2016-11-23T00:53:00.850Z,18.76
2016-11-23T00:54:13.884Z,18.78
2016-11-23T00:55:26.906Z,18.67
2016-11-23T00:56:39.377Z,18.67
2016-11-23T00:57:51.881Z,18.61
2016-11-23T00:59:04.324Z,18.63
2016-11-23T01:00:16.802Z,18.71
2016-11-23T01:01:29.854Z,18.61
2016-11-23T01:02:42.318Z,18.66
2016-11-23T01:03:55.376Z,18.68
2016-11-23T01:05:08.335Z,18.6
2016-11-23T01:06:20.303Z,18.54
2016-11-23T01:07:33.400Z,18.51
2016-11-23T01:08:46.960Z,18.57
2016-11-23T01:10:00.504Z,18.56
2016-11-23T01:11:13.010Z,18.48
2016-11-23T01:12:26.047Z,18.48
2016-11-23T01:13:39.611Z,18.49
2016-11-23T01:14:51.551Z,18.54
2016-11-23T01:16:03.440Z,18.42
2016-11-23T01:17:15.377Z,18.45
2016-11-23T01:18:27.839Z,18.45
2016-11-23T01:19:41.345Z,18.43
2016-11-23T01:20:53.833Z,18.46
2016-11-23T01:22:06.854Z,18.58
2016-11-23T01:23:20.350Z,18.54
2016-11-23T01:24:33.916Z,18.63
2016-11-23T01:25:45.843Z,18.71
2016-11-23T01:26:57.798Z,18.63
2016-11-23T01:28:10.785Z,18.66
2016-11-23T01:29:24.284Z,18.64
2016-11-23T01:30:36.715Z,18.6
2016-11-23T01:31:48.647Z,18.58
2016-11-23T01:33:01.129Z,18.61
2016-11-23T01:34:13.648Z,18.64
2016-11-23T01:35:26.170Z,18.6
2016-11-23T01:36:39.197Z,18.61
2016-11-23T01:37:51.928Z,18.66
2016-11-23T01:39:04.940Z,18.7
2016-11-23T01:40:18.425Z,18.66
2016-11-23T01:41:31.501Z,18.78
2016-11-23T01:42:44.524Z,18.71
2016-11-23T01:43:57.008Z,18.67
2016-11-23T01:45:08.390Z,18.68
2016-11-23T01:46:21.393Z,18.67
2016-11-23T01:47:34.398Z,18.75
2016-11-23T01:48:46.921Z,18.79
2016-11-23T01:50:01.131Z,18.85
2016-11-23T01:51:13.618Z,18.88
2016-11-23T01:52:26.143Z,18.93
2016-11-23T01:53:39.224Z,18.91
2016-11-23T01:54:52.501Z,18.98
2016-11-23T01:56:07.538Z,19.01
2016-11-23T01:57:19.496Z,19.04
2016-11-23T01:58:33.085Z,18.97
2016-11-23T01:59:46.158Z,18.91
2016-11-23T02:00:59.222Z,19.07
2016-11-23T02:02:13.023Z,18.89
2016-11-23T02:03:27.568Z,18.94
2016-11-23T02:04:40.566Z,18.85
2016-11-23T02:05:54.150Z,18.82
2016-11-23T02:07:07.724Z,18.83
2016-11-23T02:08:19.740Z,18.74
2016-11-23T02:09:32.778Z,18.71
2016-11-23T02:10:46.371Z,18.71
2016-11-23T02:11:59.443Z,18.75
2016-11-23T02:13:13.052Z,18.71
2016-11-23T02:14:26.603Z,18.7
2016-11-23T02:15:39.057Z,18.66
2016-11-23T02:16:52.598Z,18.71
2016-11-23T02:18:05.087Z,18.78
2016-11-23T02:19:18.093Z,18.78
2016-11-23T02:20:31.641Z,18.75
2016-11-23T02:21:43.610Z,18.75
2016-11-23T02:22:56.515Z,18.7
2016-11-23T02:24:09.512Z,18.75
2016-11-23T02:25:21.972Z,18.74
2016-11-23T02:26:35.586Z,18.79
2016-11-23T02:27:49.177Z,18.83
2016-11-23T02:29:02.204Z,18.88
2016-11-23T02:30:14.715Z,18.88
2016-11-23T02:31:27.204Z,18.81
2016-11-23T02:32:39.633Z,18.82
2016-11-23T02:33:52.659Z,18.83
2016-11-23T02:35:06.232Z,18.91
2016-11-23T02:36:18.685Z,18.83
2016-11-23T02:37:32.154Z,18.79
2016-11-23T02:38:44.631Z,18.85
2016-11-23T02:39:57.139Z,18.88
2016-11-23T02:41:10.209Z,18.89
2016-11-23T02:42:22.683Z,18.89
2016-11-23T02:43:35.208Z,18.94
2016-11-23T02:44:48.292Z,18.96
2016-11-23T02:46:01.369Z,18.91
2016-11-23T02:47:13.850Z,19.05
2016-11-23T02:48:26.892Z,19.01
2016-11-23T02:49:39.886Z,19.04
2016-11-23T02:50:51.839Z,19
2016-11-23T02:52:04.832Z,19.01
2016-11-23T02:53:17.298Z,18.97
2016-11-23T02:54:29.805Z,18.96
2016-11-23T02:55:42.824Z,18.93
2016-11-23T02:56:55.860Z,19
2016-11-23T02:58:08.314Z,18.98
2016-11-23T02:59:20.828Z,19.08
2016-11-23T03:00:33.833Z,19.07
2016-11-23T03:01:46.591Z,18.96
2016-11-23T03:02:59.599Z,18.97
2016-11-23T03:04:13.183Z,19.01
2016-11-23T03:05:25.628Z,19.12
2016-11-23T03:06:39.123Z,19.07
2016-11-23T03:07:51.629Z,19.05
2016-11-23T03:09:05.200Z,19.12
2016-11-23T03:10:18.221Z,19.13
2016-11-23T03:11:30.697Z,19.13
2016-11-23T03:12:44.675Z,19.07
2016-11-23T03:13:57.191Z,19.09
2016-11-23T03:15:10.826Z,18.96
2016-11-23T03:16:22.233Z,18.98
2016-11-23T03:17:34.792Z,19.01
2016-11-23T03:18:48.346Z,19
2016-11-23T03:20:01.368Z,19.05
2016-11-23T03:21:13.801Z,19.05
2016-11-23T03:22:26.858Z,18.97
2016-11-23T03:23:39.892Z,18.98
2016-11-23T03:24:52.407Z,19
2016-11-23T03:26:05.428Z,19.08
2016-11-23T03:27:17.896Z,19.09
2016-11-23T03:28:30.925Z,19.09
2016-11-23T03:29:44.007Z,19.08
2016-11-23T03:30:57.017Z,19.08
2016-11-23T03:32:10.059Z,19.12
2016-11-23T03:33:23.682Z,19.09
2016-11-23T03:34:36.155Z,19.12
2016-11-23T03:35:48.646Z,19.12
2016-11-23T03:37:00.084Z,19.16
2016-11-23T03:38:13.616Z,19.01
2016-11-23T03:39:26.089Z,19
2016-11-23T03:40:37.985Z,19.05
2016-11-23T03:41:51.493Z,19.01
2016-11-23T03:43:04.064Z,18.98
2016-11-23T03:44:17.568Z,19.12
2016-11-23T03:45:28.993Z,19.08
2016-11-23T03:46:41.971Z,19.08
2016-11-23T03:47:53.936Z,19.12
2016-11-23T03:49:07.514Z,19.08
2016-11-23T03:50:20.026Z,19.05
2016-11-23T03:51:33.030Z,19
2016-11-23T03:52:46.621Z,19.05
2016-11-23T03:54:00.115Z,19.09
2016-11-23T03:55:13.695Z,19.13
2016-11-23T03:56:27.237Z,19.07
2016-11-23T03:57:40.825Z,19.09
2016-11-23T03:58:52.290Z,19.05
2016-11-23T04:00:05.245Z,19.15
2016-11-23T04:01:18.761Z,19.09
2016-11-23T04:02:31.765Z,19.08
2016-11-23T04:03:44.780Z,19.12
2016-11-23T04:04:57.269Z,19.08
2016-11-23T04:06:09.753Z,19.13
2016-11-23T04:07:22.826Z,19.09
2016-11-23T04:08:36.346Z,19.08
2016-11-23T04:09:49.371Z,19.08
2016-11-23T04:11:02.874Z,19.09
2016-11-23T04:12:15.311Z,19.09
2016-11-23T04:13:28.384Z,19.09
2016-11-23T04:14:40.324Z,19.12
2016-11-23T04:15:52.341Z,19.13
2016-11-23T04:17:05.956Z,18.97
2016-11-23T04:18:19.464Z,19.12
2016-11-23T04:19:31.946Z,18.98
2016-11-23T04:20:44.453Z,18.98
2016-11-23T04:21:57.463Z,18.97
2016-11-23T04:23:10.464Z,18.97
2016-11-23T04:24:23.696Z,18.96
2016-11-23T04:25:36.190Z,18.93
2016-11-23T04:26:48.175Z,18.94
2016-11-23T04:28:00.170Z,18.88
2016-11-23T04:29:13.132Z,18.91
2016-11-23T04:30:25.659Z,18.88
2016-11-23T04:31:38.690Z,18.96
2016-11-23T04:32:50.655Z,18.88
2016-11-23T04:34:03.683Z,18.94
2016-11-23T04:35:17.228Z,18.94
2016-11-23T04:36:30.201Z,18.98
2016-11-23T04:37:43.272Z,18.88
2016-11-23T04:38:55.195Z,18.96
2016-11-23T04:40:08.194Z,18.94
2016-11-23T04:41:20.714Z,18.86
2016-11-23T04:42:33.167Z,18.89
2016-11-23T04:43:45.650Z,18.94
2016-11-23T04:44:59.205Z,18.96
2016-11-23T04:46:12.718Z,18.94
2016-11-23T04:47:25.127Z,18.93
2016-11-23T04:48:38.213Z,18.94
2016-11-23T04:49:51.250Z,19.04
2016-11-23T04:51:03.684Z,18.93
2016-11-23T04:52:15.667Z,18.93
2016-11-23T04:53:28.166Z,18.91
2016-11-23T04:54:41.167Z,18.94
2016-11-23T04:55:54.687Z,18.89
2016-11-23T04:57:06.593Z,18.94
2016-11-23T04:58:19.060Z,19.01
2016-11-23T04:59:31.021Z,19.01
2016-11-23T05:00:43.535Z,18.98
2016-11-23T05:01:56.527Z,19
2016-11-23T05:03:09.543Z,18.94
2016-11-23T05:04:22.093Z,18.86
2016-11-23T05:05:34.055Z,18.94
2016-11-23T05:06:47.056Z,18.93
2016-11-23T05:08:00.068Z,19.01
2016-11-23T05:09:13.637Z,18.97
2016-11-23T05:10:26.656Z,18.88
2016-11-23T05:11:38.651Z,19
2016-11-23T05:12:51.175Z,18.94
2016-11-23T05:14:04.138Z,18.93
2016-11-23T05:15:17.235Z,18.89
2016-11-23T05:16:29.164Z,18.91
2016-11-23T05:17:42.129Z,18.94
2016-11-23T05:18:55.133Z,18.94
2016-11-23T05:20:08.723Z,18.98
2016-11-23T05:21:21.152Z,18.94
2016-11-23T05:22:34.765Z,18.91
2016-11-23T05:23:46.715Z,18.93
2016-11-23T05:24:59.226Z,19.04
2016-11-23T05:26:12.275Z,18.96
2016-11-23T05:27:25.880Z,18.88
2016-11-23T05:28:38.900Z,19.04
2016-11-23T05:29:51.893Z,18.94
2016-11-23T05:31:05.448Z,19.07
2016-11-23T05:32:17.946Z,19
2016-11-23T05:33:30.978Z,19.04
2016-11-23T05:34:44.561Z,18.98
2016-11-23T05:35:57.026Z,18.94
2016-11-23T05:37:10.080Z,19.05
2016-11-23T05:38:23.115Z,19.04
2016-11-23T05:39:36.075Z,19.04
2016-11-23T05:40:49.075Z,19.04
2016-11-23T05:42:02.551Z,18.91
2016-11-23T05:43:15.521Z,18.91
2016-11-23T05:44:28.521Z,19
2016-11-23T05:45:41.004Z,19.04
2016-11-23T05:46:53.948Z,19.05
2016-11-23T05:48:06.942Z,19.04
2016-11-23T05:49:19.914Z,19.04
2016-11-23T05:50:32.941Z,19.07
2016-11-23T05:51:45.964Z,19.05
2016-11-23T05:52:58.991Z,18.91
2016-11-23T05:54:11.412Z,18.98
2016-11-23T05:55:24.464Z,19.04
2016-11-23T05:56:35.948Z,18.97
2016-11-23T05:57:49.012Z,18.91
2016-11-23T05:59:02.006Z,18.93
2016-11-23T06:00:14.511Z,18.96
2016-11-23T06:01:26.429Z,18.93
2016-11-23T06:02:37.834Z,18.88
2016-11-23T06:03:49.806Z,18.94
2016-11-23T06:05:02.854Z,18.93
2016-11-23T06:06:15.872Z,18.88
2016-11-23T06:07:29.421Z,18.98
2016-11-23T06:08:42.502Z,18.81
2016-11-23T06:09:54.952Z,18.89
2016-11-23T06:11:08.566Z,18.82
2016-11-23T06:12:20.553Z,18.79
2016-11-23T06:13:34.116Z,18.85
2016-11-23T06:14:47.106Z,18.81
2016-11-23T06:15:59.626Z,18.81
2016-11-23T06:17:13.148Z,18.85
2016-11-23T06:18:24.621Z,18.89
2016-11-23T06:19:38.250Z,18.83
2016-11-23T06:20:50.210Z,18.81
2016-11-23T06:22:02.735Z,18.82
2016-11-23T06:23:15.744Z,18.88
2016-11-23T06:24:28.220Z,18.85
2016-11-23T06:25:40.699Z,18.91
2016-11-23T06:26:54.223Z,18.91
2016-11-23T06:28:07.730Z,18.89
2016-11-23T06:29:19.665Z,18.82
2016-11-23T06:30:33.198Z,18.85
2016-11-23T06:31:46.272Z,18.83
2016-11-23T06:32:58.780Z,18.74
2016-11-23T06:34:12.324Z,18.83
2016-11-23T06:35:25.881Z,18.74
2016-11-23T06:36:37.866Z,18.88
2016-11-23T06:37:50.319Z,18.67
2016-11-23T06:39:03.313Z,18.68
2016-11-23T06:40:16.864Z,18.81
2016-11-23T06:41:30.460Z,18.68
2016-11-23T06:42:42.441Z,18.76
2016-11-23T06:43:54.905Z,18.74
2016-11-23T06:45:07.960Z,18.68
2016-11-23T06:46:20.504Z,18.66
2016-11-23T06:47:32.505Z,18.64
2016-11-23T06:48:45.548Z,18.66
2016-11-23T06:49:57.527Z,18.75
2016-11-23T06:51:09.509Z,18.68
2016-11-23T06:52:21.458Z,18.68
2016-11-23T06:53:33.441Z,18.75
2016-11-23T06:54:46.970Z,18.61
2016-11-23T06:56:00.436Z,18.79
2016-11-23T06:57:13.437Z,18.7
2016-11-23T06:58:25.901Z,18.75
2016-11-23T06:59:38.415Z,18.74
2016-11-23T07:00:50.902Z,18.75
2016-11-23T07:02:02.335Z,18.71
2016-11-23T07:03:15.341Z,18.78
2016-11-23T07:04:27.828Z,18.76
2016-11-23T07:05:40.394Z,18.71
2016-11-23T07:06:52.371Z,18.75
2016-11-23T07:08:05.430Z,18.66
2016-11-23T07:09:18.450Z,18.74
2016-11-23T07:10:30.456Z,18.66
2016-11-23T07:11:42.483Z,18.66
2016-11-23T07:12:55.006Z,18.78
2016-11-23T07:14:07.478Z,18.63
2016-11-23T07:15:20.464Z,18.79
2016-11-23T07:16:32.968Z,18.74
2016-11-23T07:17:46.004Z,18.68
2016-11-23T07:18:59.595Z,18.71
2016-11-23T07:20:13.076Z,18.79
2016-11-23T07:21:25.578Z,18.67
2016-11-23T07:22:36.967Z,18.68
2016-11-23T07:23:50.006Z,18.68
2016-11-23T07:25:01.950Z,18.78
2016-11-23T07:26:13.905Z,18.82
2016-11-23T07:27:26.899Z,18.76
2016-11-23T07:28:39.432Z,18.79
2016-11-23T07:29:52.425Z,18.82
2016-11-23T07:31:04.902Z,18.85
2016-11-23T07:32:18.399Z,18.79
2016-11-23T07:33:31.907Z,18.83
2016-11-23T07:34:43.877Z,18.81
2016-11-23T07:35:56.437Z,18.82
2016-11-23T07:37:08.925Z,18.83
2016-11-23T07:38:21.941Z,18.78
2016-11-23T07:39:35.519Z,18.82
2016-11-23T07:40:48.574Z,18.83
2016-11-23T07:42:02.222Z,18.86
2016-11-23T07:43:15.244Z,18.75
2016-11-23T07:44:27.776Z,18.83
2016-11-23T07:45:40.762Z,18.83
2016-11-23T07:46:53.307Z,18.83
2016-11-23T07:48:05.785Z,18.79
2016-11-23T07:49:18.807Z,18.83
2016-11-23T07:50:30.739Z,18.76
2016-11-23T07:51:42.692Z,18.7
2016-11-23T07:52:56.251Z,18.74
2016-11-23T07:54:08.234Z,18.76
2016-11-23T07:55:21.806Z,18.68
2016-11-23T07:56:33.734Z,18.76
2016-11-23T07:57:45.690Z,18.7
2016-11-23T07:58:58.687Z,18.75
2016-11-23T08:00:11.684Z,18.68
2016-11-23T08:01:25.217Z,18.71
2016-11-23T08:02:38.699Z,18.83
2016-11-23T08:03:51.748Z,18.81
2016-11-23T08:05:03.712Z,18.85
2016-11-23T08:06:16.721Z,18.82
2016-11-23T08:07:29.156Z,18.82
2016-11-23T08:08:41.667Z,18.86
2016-11-23T08:09:55.225Z,18.76
2016-11-23T08:11:08.785Z,18.74
2016-11-23T08:12:22.253Z,18.74
2016-11-23T08:13:35.237Z,18.71
2016-11-23T08:14:47.700Z,18.83
2016-11-23T08:16:00.683Z,18.75
2016-11-23T08:17:11.589Z,18.83
2016-11-23T08:18:24.662Z,18.83
2016-11-23T08:19:37.088Z,18.85
2016-11-23T08:20:49.582Z,18.85
2016-11-23T08:22:02.091Z,18.83
2016-11-23T08:23:15.103Z,18.93
2016-11-23T08:24:27.631Z,18.93
2016-11-23T08:25:39.593Z,18.86
2016-11-23T08:26:52.061Z,18.93
2016-11-23T08:28:04.061Z,18.94
2016-11-23T08:29:16.494Z,18.86
2016-11-23T08:30:29.997Z,19.01
2016-11-23T08:31:42.980Z,18.91
2016-11-23T08:32:56.519Z,18.94
2016-11-23T08:34:08.956Z,18.89
2016-11-23T08:35:20.944Z,18.85
2016-11-23T08:36:32.876Z,18.91
2016-11-23T08:37:45.883Z,18.94
2016-11-23T08:38:58.441Z,18.97
2016-11-23T08:40:09.858Z,18.97
2016-11-23T08:41:23.471Z,18.97
2016-11-23T08:42:35.439Z,18.98
2016-11-23T08:43:48.435Z,19.04
2016-11-23T08:45:01.434Z,19.07
2016-11-23T08:46:13.395Z,18.96
2016-11-23T08:47:26.417Z,19.08
2016-11-23T08:48:39.393Z,19.07
2016-11-23T08:49:52.340Z,19.08
2016-11-23T08:51:04.821Z,19.08
2016-11-23T08:52:17.394Z,19.08
2016-11-23T08:53:30.404Z,19.07
2016-11-23T08:54:43.416Z,19.08
2016-11-23T08:55:56.930Z,19.01
2016-11-23T08:57:09.981Z,19.15
2016-11-23T08:58:22.476Z,19.09
2016-11-23T08:59:35.530Z,19.12
2016-11-23T09:00:47.978Z,19.08
2016-11-23T09:02:00.993Z,19.09
2016-11-23T09:03:12.883Z,19.09
2016-11-23T09:04:25.384Z,19.13
2016-11-23T09:05:37.336Z,19.13
2016-11-23T09:06:50.342Z,19.12
2016-11-23T09:08:03.343Z,19.17
2016-11-23T09:09:15.839Z,19.2
2016-11-23T09:10:28.315Z,19.23
2016-11-23T09:11:40.834Z,19.23
2016-11-23T09:12:54.359Z,19.31
2016-11-23T09:14:07.914Z,19.3
2016-11-23T09:15:20.401Z,19.3
2016-11-23T09:16:33.462Z,19.37
2016-11-23T09:17:46.502Z,19.32
2016-11-23T09:18:58.979Z,19.35
2016-11-23T09:20:11.450Z,19.31
2016-11-23T09:21:24.458Z,19.37
2016-11-23T09:22:37.522Z,19.34
2016-11-23T09:23:49.479Z,19.39
2016-11-23T09:25:02.027Z,19.39
2016-11-23T09:26:14.503Z,19.41
2016-11-23T09:27:26.488Z,19.38
2016-11-23T09:28:39.560Z,19.42
2016-11-23T09:29:52.631Z,19.35
2016-11-23T09:31:04.555Z,19.45
2016-11-23T09:32:16.550Z,19.35
2016-11-23T09:33:28.982Z,19.41
2016-11-23T09:34:41.981Z,19.44
2016-11-23T09:35:55.018Z,19.39
2016-11-23T09:37:07.481Z,19.44
2016-11-23T09:38:20.008Z,19.44
2016-11-23T09:39:32.548Z,19.44
2016-11-23T09:40:46.054Z,19.42
2016-11-23T09:41:58.532Z,19.57
2016-11-23T09:43:11.019Z,19.42
2016-11-23T09:44:23.491Z,19.45
2016-11-23T09:45:35.510Z,19.42
2016-11-23T09:46:48.522Z,19.49
2016-11-23T09:48:01.547Z,19.5
2016-11-23T09:49:15.061Z,19.45
2016-11-23T09:50:27.507Z,19.37
2016-11-23T09:51:40.081Z,19.39
2016-11-23T09:52:53.666Z,19.44
2016-11-23T09:54:07.140Z,19.44
2016-11-23T09:55:19.091Z,19.47
2016-11-23T09:56:31.086Z,19.49
2016-11-23T09:57:44.649Z,19.39
2016-11-23T09:58:57.644Z,19.44
2016-11-23T10:00:10.104Z,19.45
2016-11-23T10:01:22.002Z,19.44
2016-11-23T10:02:34.484Z,19.45
2016-11-23T10:03:47.515Z,19.41
2016-11-23T10:04:59.453Z,19.42
2016-11-23T10:06:11.983Z,19.45
2016-11-23T10:07:24.415Z,19.5
2016-11-23T10:08:36.902Z,19.49
2016-11-23T10:09:49.947Z,19.47
2016-11-23T10:11:03.563Z,19.53
2016-11-23T10:12:16.633Z,19.59
2016-11-23T10:13:29.133Z,19.5
2016-11-23T10:14:42.686Z,19.49
2016-11-23T10:15:55.214Z,19.52
2016-11-23T10:17:07.718Z,19.56
2016-11-23T10:18:20.169Z,19.59
2016-11-23T10:19:33.725Z,19.59
2016-11-23T10:20:46.739Z,19.59
2016-11-23T10:21:59.203Z,19.6
2016-11-23T10:23:12.231Z,19.53
2016-11-23T10:24:24.732Z,19.49
2016-11-23T10:25:37.226Z,19.5
2016-11-23T10:26:49.732Z,19.5
2016-11-23T10:28:02.735Z,19.53
2016-11-23T10:29:15.167Z,19.56
2016-11-23T10:30:27.731Z,19.41
2016-11-23T10:31:40.230Z,19.47
2016-11-23T10:32:52.737Z,19.42
2016-11-23T10:34:04.729Z,19.45
2016-11-23T10:35:16.689Z,19.39
2016-11-23T10:36:28.650Z,19.38
2016-11-23T10:37:42.136Z,19.39
2016-11-23T10:38:54.128Z,19.38
2016-11-23T10:40:07.722Z,19.35
2016-11-23T10:41:20.777Z,19.44
2016-11-23T10:42:33.223Z,19.41
2016-11-23T10:43:45.672Z,19.49
2016-11-23T10:44:59.305Z,19.5
2016-11-23T10:46:11.778Z,19.45
2016-11-23T10:47:24.808Z,19.49
2016-11-23T10:48:37.289Z,19.5
2016-11-23T10:49:50.313Z,19.56
2016-11-23T10:51:02.823Z,19.62
2016-11-23T10:52:16.303Z,19.59
2016-11-23T10:53:28.801Z,19.52
2016-11-23T10:54:41.859Z,19.52
2016-11-23T10:55:54.877Z,19.56
2016-11-23T10:57:06.918Z,19.57
2016-11-23T10:58:19.407Z,19.67
2016-11-23T10:59:32.860Z,19.6
2016-11-23T11:00:46.428Z,19.52
2016-11-23T11:01:59.454Z,19.57
2016-11-23T11:03:13.020Z,19.59
2016-11-23T11:04:25.437Z,19.57
2016-11-23T11:05:39.051Z,19.56
2016-11-23T11:06:52.185Z,19.52
2016-11-23T11:08:05.237Z,19.5
2016-11-23T11:09:17.720Z,19.6
2016-11-23T11:10:30.186Z,19.57
2016-11-23T11:11:42.707Z,19.57
2016-11-23T11:12:55.202Z,19.56
2016-11-23T11:14:06.651Z,19.52
2016-11-23T11:15:19.698Z,19.57
2016-11-23T11:16:33.273Z,19.54
2016-11-23T11:17:46.340Z,19.56
2016-11-23T11:18:58.268Z,19.56
2016-11-23T11:20:10.261Z,19.59
2016-11-23T11:21:22.783Z,19.64
2016-11-23T11:22:35.818Z,19.72
2016-11-23T11:23:49.378Z,19.62
2016-11-23T11:25:02.969Z,19.71
2016-11-23T11:26:15.493Z,19.68
2016-11-23T11:27:27.977Z,19.77
2016-11-23T11:28:41.447Z,19.57
2016-11-23T11:29:54.948Z,19.64
2016-11-23T11:31:07.456Z,19.6
2016-11-23T11:32:19.912Z,19.67
2016-11-23T11:33:31.842Z,19.62
2016-11-23T11:34:45.352Z,19.6
2016-11-23T11:35:58.884Z,19.6
2016-11-23T11:37:10.843Z,19.54
2016-11-23T11:38:23.891Z,19.53
2016-11-23T11:39:36.950Z,19.53
2016-11-23T11:40:49.945Z,19.53
2016-11-23T11:42:03.039Z,19.56
2016-11-23T11:43:14.522Z,19.44
2016-11-23T11:44:27.045Z,19.59
2016-11-23T11:45:40.051Z,19.54
2016-11-23T11:46:52.551Z,19.49
2016-11-23T11:48:04.537Z,19.59
2016-11-23T11:49:18.119Z,19.56
2016-11-23T11:50:30.552Z,19.6
2016-11-23T11:51:42.507Z,19.72
2016-11-23T11:52:55.996Z,19.74
2016-11-23T11:54:09.478Z,19.77
2016-11-23T11:55:21.932Z,19.79
2016-11-23T11:56:34.425Z,19.74
2016-11-23T11:57:46.420Z,19.78
2016-11-23T11:58:58.948Z,19.75
2016-11-23T12:00:11.476Z,19.74
2016-11-23T12:01:23.970Z,19.82
2016-11-23T12:02:37.566Z,19.84
2016-11-23T12:03:49.549Z,19.89
2016-11-23T12:05:02.028Z,19.9
2016-11-23T12:06:14.542Z,19.92
2016-11-23T12:07:27.579Z,19.93
2016-11-23T12:08:40.638Z,19.99
2016-11-23T12:09:52.608Z,19.99
2016-11-23T12:11:05.375Z,20
2016-11-23T12:12:18.438Z,20.08
2016-11-23T12:13:31.485Z,20.02
2016-11-23T12:14:44.784Z,20.11
2016-11-23T12:15:57.809Z,20.14
2016-11-23T12:17:10.792Z,20.17
2016-11-23T12:18:23.256Z,20.15
2016-11-23T12:19:36.327Z,20.11
2016-11-23T12:20:49.323Z,20.15
2016-11-23T12:22:02.855Z,20.14
2016-11-23T12:23:14.795Z,20.27
2016-11-23T12:24:26.755Z,20.18
2016-11-23T12:25:39.806Z,20.15
2016-11-23T12:26:53.393Z,20.22
2016-11-23T12:28:06.973Z,20.23
2016-11-23T12:29:20.089Z,20.22
2016-11-23T12:30:32.562Z,20.19
2016-11-23T12:31:45.627Z,20.33
2016-11-23T12:32:58.661Z,20.32
2016-11-23T12:34:11.606Z,20.36
2016-11-23T12:35:25.152Z,20.37
2016-11-23T12:36:37.110Z,20.44
2016-11-23T12:37:50.680Z,20.42
2016-11-23T12:39:03.748Z,20.34
2016-11-23T12:40:15.196Z,20.52
2016-11-23T12:41:28.229Z,20.49
2016-11-23T12:42:40.758Z,20.58
2016-11-23T12:43:53.796Z,20.64
2016-11-23T12:45:07.429Z,20.67
2016-11-23T12:46:20.481Z,20.74
2016-11-23T12:47:34.093Z,20.8
2016-11-23T12:48:46.583Z,20.8
2016-11-23T12:49:59.129Z,20.85
2016-11-23T12:51:11.658Z,21
2016-11-23T12:52:23.065Z,21.01
2016-11-23T12:53:35.033Z,21.01
2016-11-23T12:54:48.028Z,21.07
2016-11-23T12:56:00.552Z,21.13
2016-11-23T12:57:14.174Z,21.18
2016-11-23T12:58:25.629Z,21.18
2016-11-23T12:59:39.147Z,21.28
2016-11-23T13:00:51.657Z,21.26
2016-11-23T13:02:03.081Z,21.26
2016-11-23T13:03:16.136Z,21.32
2016-11-23T13:04:28.652Z,21.34
2016-11-23T13:05:41.176Z,21.44
2016-11-23T13:06:53.631Z,21.44
2016-11-23T13:08:07.263Z,21.58
2016-11-23T13:09:20.799Z,21.66
2016-11-23T13:10:32.766Z,21.73
2016-11-23T13:11:44.758Z,21.66
2016-11-23T13:12:57.787Z,21.74
2016-11-23T13:14:10.763Z,21.78
2016-11-23T13:15:23.808Z,21.73
2016-11-23T13:16:35.759Z,21.67
2016-11-23T13:17:48.254Z,21.8
2016-11-23T13:19:01.815Z,21.97
2016-11-23T13:20:14.824Z,22.07
2016-11-23T13:21:26.765Z,22.19
2016-11-23T13:22:39.752Z,22.18
2016-11-23T13:23:52.299Z,22.43
2016-11-23T13:25:04.251Z,22.51
2016-11-23T13:26:17.195Z,22.64
2016-11-23T13:27:30.765Z,22.71
2016-11-23T13:28:44.295Z,22.74
2016-11-23T13:29:56.827Z,22.85
2016-11-23T13:31:08.800Z,22.99
2016-11-23T13:32:21.330Z,23.08
2016-11-23T13:33:33.819Z,23.17
2016-11-23T13:34:47.417Z,23.34
2016-11-23T13:35:59.901Z,23.36
2016-11-23T13:37:12.394Z,23.22
2016-11-23T13:38:25.484Z,23.26
2016-11-23T13:39:38.120Z,23.25
2016-11-23T13:40:50.218Z,23.36
2016-11-23T13:42:01.680Z,23.29
2016-11-23T13:43:14.222Z,23.48
2016-11-23T13:44:27.279Z,23.69
2016-11-23T13:45:40.338Z,23.79
2016-11-23T13:46:53.373Z,24.08
2016-11-23T13:48:04.889Z,24.19
2016-11-23T13:49:17.913Z,24.26
2016-11-23T13:50:30.396Z,24.4
2016-11-23T13:51:43.530Z,24.44
2016-11-23T13:52:56.024Z,24.56
2016-11-23T13:54:08.460Z,24.53
2016-11-23T13:55:21.491Z,24.56
2016-11-23T13:56:34.592Z,24.66
2016-11-23T13:57:48.120Z,24.78
2016-11-23T13:59:00.649Z,24.82
2016-11-23T14:00:13.666Z,24.75
2016-11-23T14:01:26.144Z,24.78
2016-11-23T14:02:39.145Z,24.76
2016-11-23T14:03:51.650Z,24.81
2016-11-23T14:05:04.672Z,24.71
2016-11-23T14:06:17.232Z,24.74
2016-11-23T14:07:29.722Z,24.78
2016-11-23T14:08:42.774Z,24.78
2016-11-23T14:09:55.855Z,24.76
2016-11-23T14:11:08.306Z,24.74
2016-11-23T14:12:20.802Z,24.93
2016-11-23T14:13:33.823Z,24.97
2016-11-23T14:14:47.399Z,25.06
2016-11-23T14:16:00.465Z,25.21
2016-11-23T14:17:13.501Z,25.36
2016-11-23T14:18:26.017Z,25.33
2016-11-23T14:19:39.484Z,25.28
2016-11-23T14:20:51.975Z,25.31
2016-11-23T14:22:05.049Z,25.46
2016-11-23T14:23:18.115Z,25.38
2016-11-23T14:24:30.164Z,25.33
2016-11-23T14:25:42.126Z,25.43
2016-11-23T14:26:55.703Z,25.56
2016-11-23T14:28:08.879Z,25.68
2016-11-23T14:29:22.487Z,25.82
2016-11-23T14:30:34.461Z,25.78
2016-11-23T14:31:46.999Z,25.89
2016-11-23T14:32:59.534Z,25.82
2016-11-23T14:34:12.053Z,25.75
2016-11-23T14:35:25.057Z,25.71
2016-11-23T14:36:38.087Z,25.73
2016-11-23T14:37:50.602Z,25.78
2016-11-23T14:39:03.592Z,25.78
2016-11-23T14:40:17.136Z,25.77
2016-11-23T14:41:30.692Z,25.58
2016-11-23T14:42:44.254Z,25.58
2016-11-23T14:43:57.832Z,25.56
2016-11-23T14:45:11.379Z,25.71
2016-11-23T14:46:24.456Z,25.73
2016-11-23T14:47:37.579Z,25.66
2016-11-23T14:48:50.582Z,25.55
2016-11-23T14:50:03.594Z,25.36
2016-11-23T14:51:16.702Z,25.26
2016-11-23T14:52:29.763Z,25.28
2016-11-23T14:53:42.968Z,25.33
2016-11-23T14:54:56.049Z,25.38
2016-11-23T14:56:09.578Z,25.43
2016-11-23T14:57:22.632Z,25.43
2016-11-23T14:59:07.320Z,25.61
2016-11-23T15:00:19.372Z,25.53
2016-11-23T15:01:32.928Z,25.78
2016-11-23T15:02:45.462Z,25.83
2016-11-23T15:03:58.571Z,25.88
2016-11-23T15:05:10.569Z,25.83
2016-11-23T15:06:22.521Z,25.82
2016-11-23T15:07:35.600Z,25.74
2016-11-23T15:08:49.102Z,25.55
2016-11-23T15:10:01.124Z,25.43
2016-11-23T15:11:14.164Z,25.31
2016-11-23T15:12:27.752Z,25.3
2016-11-23T15:13:40.767Z,25.31
2016-11-23T15:14:53.815Z,25.36
2016-11-23T15:16:06.341Z,25.46
2016-11-23T15:17:18.890Z,25.53
2016-11-23T15:18:31.382Z,25.58
2016-11-23T15:19:43.376Z,25.59
2016-11-23T15:20:55.318Z,25.53
2016-11-23T15:22:08.415Z,25.58
2016-11-23T15:23:20.913Z,25.55
2016-11-23T15:24:32.904Z,25.46
2016-11-23T15:25:45.964Z,25.43
2016-11-23T15:28:01.748Z,25.27
2016-11-23T15:29:14.250Z,25.31
2016-11-23T15:30:26.772Z,25.3
2016-11-23T15:31:40.428Z,25.28
2016-11-23T15:32:54.020Z,25.28
2016-11-23T15:34:07.041Z,25.22
2016-11-23T15:35:19.523Z,25.14
2016-11-23T15:37:03.655Z,25.19
2016-11-23T15:38:17.233Z,25.33
2016-11-23T15:39:30.303Z,25.33
2016-11-23T15:40:43.893Z,25.33
2016-11-23T15:41:56.905Z,25.46
2016-11-23T15:43:09.918Z,25.52